Terminal Aerodrome Forecast
Issued by NWS Chicago, IL

Home | Current Version | Previous Version | Graphics & Text | Print | Product List | Glossary Off
Versions: 1 2 3 4 5 6 7 8 9 10 11 12 13 14 15 16 17 18 19 20 21

000
FTUS43 KLOT 231120
TAFRFD
TAF
KRFD 231120Z 2312/2412 20011KT P6SM BKN040
     FM231500 24008KT P6SM FEW040 BKN250
     FM232300 19004KT P6SM FEW250=

USA.gov is the U.S. government's official web portal to all federal, state and local government web resources and services.